Time;durP1;ratioP1;P1;durP2;ratioP2;P2;SDS_P1;SDS_P2;PMS_P1;PMS_P2;Temp;Humidity;BMP_temperature;BMP_pressure;BME280_temperature;BME280_humidity;BME280_pressure;Samples;Min_cycle;Max_cycle;Signal;HPM_P1;HPM_P2
2022/02/14 00:01:06;;;;;;;2.93;1.70;;;17.80;56.60;;;;;;5049351;28;21093;-68
2022/02/14 00:03:36;;;;;;;2.70;2.07;;;17.80;56.70;;;;;;5068422;28;20663;-67
2022/02/14 00:06:03;;;;;;;3.17;2.10;;;17.70;56.70;;;;;;5067181;28;20216;-68
2022/02/14 00:08:35;;;;;;;2.83;1.90;;;17.70;56.60;;;;;;5061097;28;20197;-67
2022/02/14 00:11:03;;;;;;;2.30;1.70;;;17.70;56.80;;;;;;5069522;28;20190;-67
2022/02/14 00:13:34;;;;;;;4.13;1.90;;;17.70;56.70;;;;;;5047809;28;20198;-67
2022/02/14 00:16:04;;;;;;;2.80;1.90;;;17.70;56.60;;;;;;5050583;28;20214;-68
2022/02/14 00:18:34;;;;;;;2.50;1.80;;;17.60;56.70;;;;;;5067384;28;20190;-68
2022/02/14 00:21:07;;;;;;;3.07;1.70;;;17.60;56.70;;;;;;5064330;28;20231;-68
2022/02/14 00:23:36;;;;;;;2.87;1.90;;;17.60;56.80;;;;;;5061958;28;20702;-68
2022/02/14 00:26:07;;;;;;;3.00;1.97;;;17.60;56.70;;;;;;5047585;28;20731;-68
2022/02/14 00:28:42;;;;;;;2.83;1.47;;;17.60;56.80;;;;;;5062009;28;20650;-68
2022/02/14 00:31:15;;;;;;;3.00;1.60;;;17.60;57.60;;;;;;5067147;28;20212;-68
2022/02/14 00:33:47;;;;;;;4.73;1.90;;;17.50;56.80;;;;;;5064711;28;20198;-68
2022/02/14 00:36:14;;;;;;;2.03;1.83;;;17.50;56.80;;;;;;5067091;28;20555;-68
2022/02/14 00:38:43;;;;;;;2.63;1.73;;;17.50;56.80;;;;;;5047525;28;20247;-67
2022/02/14 00:41:16;;;;;;;1.70;1.50;;;17.50;56.60;;;;;;5064911;28;20189;-68
2022/02/14 00:43:52;;;;;;;3.13;1.80;;;17.50;56.70;;;;;;5068242;28;20199;-68
2022/02/14 00:46:22;;;;;;;2.90;1.80;;;17.40;56.50;;;;;;5048536;28;20719;-68
2022/02/14 00:48:56;;;;;;;3.10;1.90;;;17.40;57.00;;;;;;5065740;28;20269;-67
2022/02/14 00:51:29;;;;;;;3.77;1.90;;;17.40;56.80;;;;;;5063708;28;20291;-68
2022/02/14 00:53:57;;;;;;;3.80;2.00;;;17.40;57.00;;;;;;5067857;28;20194;-67
2022/02/14 00:56:28;;;;;;;4.00;1.90;;;17.40;57.00;;;;;;5065191;28;20202;-67
2022/02/14 00:58:56;;;;;;;2.10;1.70;;;17.40;57.10;;;;;;5067548;28;20209;-67
2022/02/14 01:01:24;;;;;;;3.23;1.77;;;17.40;57.00;;;;;;5060335;28;20822;-67
2022/02/14 01:03:55;;;;;;;2.33;1.70;;;17.30;57.10;;;;;;5066099;28;20202;-67
2022/02/14 01:06:27;;;;;;;2.47;1.70;;;17.40;57.80;;;;;;5056304;28;20225;-67
2022/02/14 01:09:16;;;;;;;2.03;1.70;;;17.40;57.40;;;;;;5063501;28;20209;-68
2022/02/14 01:11:51;;;;;;;1.70;1.50;;;17.30;57.30;;;;;;5066759;28;20214;-67
2022/02/14 01:14:28;;;;;;;1.70;1.40;;;17.30;56.70;;;;;;5064080;28;20216;-68
2022/02/14 01:17:02;;;;;;;2.93;1.80;;;17.30;57.10;;;;;;5062765;28;20193;-67
2022/02/14 01:19:32;;;;;;;1.67;1.50;;;17.20;56.60;;;;;;5063818;28;20237;-68
2022/02/14 01:22:00;;;;;;;1.53;1.37;;;17.30;57.10;;;;;;5063038;28;20660;-67
2022/02/14 01:24:29;;;;;;;1.73;1.10;;;17.20;57.10;;;;;;5050107;28;20212;-68
2022/02/14 01:26:57;;;;;;;2.30;1.70;;;17.20;56.70;;;;;;5028791;28;20234;-68
2022/02/14 01:29:28;;;;;;;2.43;1.23;;;17.20;57.10;;;;;;5065067;28;20223;-68
2022/02/14 01:31:58;;;;;;;2.37;1.50;;;17.20;57.10;;;;;;5054020;28;20205;-68
2022/02/14 01:34:29;;;;;;;1.63;1.50;;;17.20;56.70;;;;;;5049886;28;20221;-68
2022/02/14 01:37:06;;;;;;;1.67;1.30;;;17.10;56.80;;;;;;5064013;28;20247;-68
2022/02/14 01:39:42;;;;;;;2.23;1.80;;;17.20;56.50;;;;;;5063113;28;20229;-68
2022/02/14 01:42:17;;;;;;;3.23;1.43;;;17.20;56.80;;;;;;5049473;28;20819;-68
2022/02/14 01:44:53;;;;;;;2.87;1.70;;;17.10;56.50;;;;;;5053021;28;20722;-68
2022/02/14 01:47:36;;;;;;;1.63;1.40;;;17.10;56.50;;;;;;5064802;28;20228;-67
2022/02/14 01:50:08;;;;;;;2.40;1.50;;;17.10;57.10;;;;;;5064457;28;20210;-67
2022/02/14 01:52:48;;;;;;;2.20;1.33;;;17.10;57.00;;;;;;5050436;28;20208;-67
2022/02/14 01:55:17;;;;;;;3.63;1.97;;;17.10;57.00;;;;;;5057158;28;20198;-67
2022/02/14 01:57:45;;;;;;;2.07;1.60;;;17.00;56.90;;;;;;5049161;28;20206;-68
2022/02/14 02:00:18;;;;;;;2.17;1.40;;;17.10;56.90;;;;;;5066413;28;20186;-68
2022/02/14 02:02:49;;;;;;;2.53;1.30;;;17.00;56.20;;;;;;5059510;28;20220;-67
2022/02/14 02:05:32;;;;;;;4.10;1.83;;;17.00;56.60;;;;;;5049486;28;20245;-68
2022/02/14 02:08:06;;;;;;;3.30;1.80;;;17.00;56.20;;;;;;5046540;28;20198;-68
2022/02/14 02:12:22;;;;;;;2.43;1.30;;;17.00;56.60;;;;;;5058855;28;20284;-68
2022/02/14 02:13:50;;;;;;;3.07;1.50;;;17.00;56.50;;;;;;5059721;28;20263;-67
2022/02/14 02:16:27;;;;;;;3.83;1.87;;;17.00;56.60;;;;;;5042936;28;20194;-67
2022/02/14 02:19:04;;;;;;;3.23;1.57;;;17.00;56.20;;;;;;5060792;28;20244;-68
2022/02/14 02:21:33;;;;;;;3.30;1.70;;;17.00;56.40;;;;;;5048277;28;20213;-68
2022/02/14 02:24:09;;;;;;;3.07;1.40;;;17.00;56.00;;;;;;5066473;28;20201;-68
2022/02/14 02:26:45;;;;;;;2.37;1.30;;;16.90;56.30;;;;;;5046478;28;20312;-68
2022/02/14 02:29:17;;;;;;;4.30;1.37;;;17.00;56.50;;;;;;5045933;28;20198;-68
2022/02/14 02:31:49;;;;;;;2.57;1.57;;;16.90;56.00;;;;;;5063612;28;20221;-69
2022/02/14 02:34:19;;;;;;;1.63;1.40;;;16.90;56.10;;;;;;5032059;28;20206;-68
2022/02/14 02:37:02;;;;;;;2.33;1.43;;;16.90;55.90;;;;;;5049586;28;20263;-68
2022/02/14 02:39:46;;;;;;;2.50;1.37;;;16.90;56.40;;;;;;5058712;28;20201;-67
2022/02/14 02:42:22;;;;;;;2.80;1.40;;;16.90;55.80;;;;;;5059676;28;20276;-68
2022/02/14 02:44:55;;;;;;;2.87;1.30;;;16.90;55.70;;;;;;5059839;28;20197;-68
2022/02/14 02:47:30;;;;;;;4.20;1.60;;;16.90;55.80;;;;;;5052111;28;20674;-68
2022/02/14 02:50:01;;;;;;;2.10;1.53;;;16.90;55.50;;;;;;5064700;28;20218;-67
2022/02/14 02:52:42;;;;;;;1.47;1.30;;;16.90;55.50;;;;;;5068842;28;20654;-68
2022/02/14 02:55:13;;;;;;;1.97;1.27;;;16.90;55.20;;;;;;5065712;28;20205;-68
2022/02/14 02:57:45;;;;;;;1.87;1.53;;;16.80;55.50;;;;;;5057527;28;20903;-68
2022/02/14 03:00:14;;;;;;;3.33;1.93;;;16.80;55.20;;;;;;5068893;28;20186;-67
2022/02/14 03:02:48;;;;;;;2.47;1.70;;;16.90;55.30;;;;;;5056251;28;20635;-67
2022/02/14 03:05:19;;;;;;;4.47;1.80;;;16.90;55.20;;;;;;5066422;28;20198;-68
2022/02/14 03:07:48;;;;;;;2.83;1.50;;;16.90;55.10;;;;;;5069780;28;20285;-68
2022/02/14 03:10:26;;;;;;;4.80;1.70;;;16.80;54.90;;;;;;5068573;28;20381;-68
2022/02/14 03:12:55;;;;;;;3.13;1.50;;;16.90;54.90;;;;;;5028720;28;20220;-68
2022/02/14 03:15:26;;;;;;;2.97;1.43;;;16.80;54.80;;;;;;5063733;28;20296;-68
2022/02/14 03:17:58;;;;;;;3.37;1.83;;;16.80;54.70;;;;;;5058994;28;20210;-68
2022/02/14 03:20:29;;;;;;;2.13;1.47;;;16.80;54.80;;;;;;5068181;28;20271;-67
2022/02/14 03:23:00;;;;;;;3.17;1.70;;;16.80;54.70;;;;;;5069068;28;20213;-68
2022/02/14 03:25:30;;;;;;;2.87;1.60;;;16.80;54.80;;;;;;5064375;28;20219;-68
2022/02/14 03:28:00;;;;;;;4.90;2.10;;;16.80;54.90;;;;;;5069643;28;20662;-68
2022/02/14 03:30:32;;;;;;;4.33;1.47;;;16.80;54.80;;;;;;5070024;28;20186;-68
2022/02/14 03:33:04;;;;;;;3.20;1.30;;;16.80;54.90;;;;;;5067862;28;20210;-68
2022/02/14 03:35:50;;;;;;;4.03;1.73;;;16.80;54.80;;;;;;5061656;28;20225;-68
2022/02/14 03:38:18;;;;;;;3.13;1.53;;;16.80;54.80;;;;;;5045979;28;20218;-68
2022/02/14 03:40:50;;;;;;;3.20;1.87;;;16.80;55.10;;;;;;5069311;28;20236;-68
2022/02/14 03:43:19;;;;;;;2.17;1.30;;;16.80;54.90;;;;;;5048132;28;20202;-68
2022/02/14 03:45:52;;;;;;;2.67;1.30;;;16.70;54.90;;;;;;5067992;28;20217;-67
2022/02/14 03:48:28;;;;;;;2.20;1.50;;;16.70;54.90;;;;;;5037584;28;20209;-68
2022/02/14 03:51:00;;;;;;;2.97;1.70;;;16.70;54.70;;;;;;5062100;28;20271;-68
2022/02/14 03:53:32;;;;;;;2.37;1.77;;;16.70;55.20;;;;;;5050149;28;20352;-68
2022/02/14 03:56:09;;;;;;;2.70;1.60;;;16.70;54.70;;;;;;5065837;28;20195;-68
2022/02/14 03:58:44;;;;;;;4.13;1.80;;;16.70;54.60;;;;;;5063818;28;20645;-68
2022/02/14 04:01:13;;;;;;;2.73;1.30;;;16.70;54.50;;;;;;5060964;28;20267;-67
2022/02/14 04:03:44;;;;;;;3.80;1.90;;;16.70;54.50;;;;;;5067419;28;20227;-68
2022/02/14 04:06:15;;;;;;;4.17;1.67;;;16.70;54.60;;;;;;5065531;28;20228;-68
2022/02/14 04:08:44;;;;;;;2.77;1.43;;;16.70;54.40;;;;;;5064901;28;20186;-68
2022/02/14 04:11:13;;;;;;;2.90;1.30;;;16.70;54.50;;;;;;5063846;28;20254;-68
2022/02/14 04:13:43;;;;;;;2.67;1.37;;;16.60;54.40;;;;;;5045427;28;20215;-67
2022/02/14 04:16:14;;;;;;;2.30;1.20;;;16.70;54.70;;;;;;5068739;28;20194;-67
2022/02/14 04:18:48;;;;;;;1.67;1.20;;;16.70;54.60;;;;;;5061713;28;20232;-68
2022/02/14 04:21:22;;;;;;;2.07;1.37;;;16.70;54.60;;;;;;5046603;28;20197;-68
2022/02/14 04:23:54;;;;;;;1.80;1.20;;;16.70;54.70;;;;;;5065072;28;20206;-69
2022/02/14 04:26:23;;;;;;;2.00;1.30;;;16.70;54.70;;;;;;5065530;28;20284;-68
2022/02/14 04:28:56;;;;;;;1.80;1.27;;;16.70;54.70;;;;;;5065059;28;20201;-68
2022/02/14 04:31:30;;;;;;;2.17;1.60;;;16.60;55.10;;;;;;5065606;28;20766;-68
2022/02/14 04:34:01;;;;;;;1.50;1.37;;;16.60;54.60;;;;;;5066874;28;20762;-68
2022/02/14 04:36:35;;;;;;;2.90;1.27;;;16.60;54.90;;;;;;5070105;28;20214;-68
2022/02/14 04:39:05;;;;;;;1.40;1.00;;;16.60;55.00;;;;;;5061627;28;20226;-68
2022/02/14 04:41:36;;;;;;;3.07;1.83;;;16.60;54.70;;;;;;5060028;28;20205;-68
2022/02/14 04:44:05;;;;;;;2.57;1.13;;;16.60;54.70;;;;;;5050597;28;20646;-68
2022/02/14 04:46:36;;;;;;;2.93;1.37;;;16.60;54.60;;;;;;5042629;28;20232;-68
2022/02/14 04:49:06;;;;;;;2.30;1.00;;;16.60;55.00;;;;;;5060986;28;20197;-68
2022/02/14 04:51:40;;;;;;;3.43;1.50;;;16.60;54.80;;;;;;5038666;28;20263;-68
2022/02/14 04:54:19;;;;;;;3.00;1.63;;;16.60;54.70;;;;;;5053842;28;20206;-68
2022/02/14 04:56:52;;;;;;;4.03;1.53;;;16.60;54.70;;;;;;5067557;28;20651;-68
2022/02/14 04:59:23;;;;;;;2.00;1.23;;;16.60;54.90;;;;;;5076546;28;20200;-68
2022/02/14 05:01:52;;;;;;;3.00;1.37;;;16.60;55.20;;;;;;5059629;28;20267;-67
2022/02/14 05:04:22;;;;;;;1.83;1.17;;;16.50;54.60;;;;;;5067885;28;20205;-67
2022/02/14 05:06:53;;;;;;;3.97;1.40;;;16.60;54.40;;;;;;5055768;28;20271;-67
2022/02/14 05:09:29;;;;;;;1.33;1.10;;;16.60;54.50;;;;;;5049377;28;20882;-67
2022/02/14 05:12:02;;;;;;;1.83;1.33;;;16.50;54.50;;;;;;5065156;28;20560;-67
2022/02/14 05:14:32;;;;;;;1.80;1.17;;;16.60;54.50;;;;;;5043313;28;20222;-67
2022/02/14 05:17:01;;;;;;;1.67;1.30;;;16.50;54.30;;;;;;5068353;28;20548;-68
2022/02/14 05:19:30;;;;;;;1.27;1.17;;;16.60;54.50;;;;;;5063798;28;20240;-68
2022/02/14 05:22:02;;;;;;;2.70;1.43;;;16.60;55.00;;;;;;5065121;28;20275;-68
2022/02/14 05:24:34;;;;;;;1.73;1.20;;;16.50;54.60;;;;;;5047905;28;20693;-68
2022/02/14 05:27:02;;;;;;;1.40;1.10;;;16.60;54.60;;;;;;5059404;28;20269;-68
2022/02/14 05:29:34;;;;;;;2.83;1.37;;;16.50;54.60;;;;;;5062149;28;20200;-68
2022/02/14 05:32:02;;;;;;;1.60;1.50;;;16.50;55.00;;;;;;5051772;28;20238;-68
2022/02/14 05:34:32;;;;;;;1.80;1.30;;;16.50;54.60;;;;;;5049916;28;20213;-68
2022/02/14 05:37:04;;;;;;;2.10;1.43;;;16.50;54.60;;;;;;5047211;28;20281;-68
2022/02/14 05:39:34;;;;;;;1.73;1.23;;;16.50;54.90;;;;;;5040408;28;20612;-68
2022/02/14 05:42:08;;;;;;;1.40;1.03;;;16.50;54.30;;;;;;5067245;28;20711;-68
2022/02/14 05:44:38;;;;;;;3.00;1.27;;;16.50;54.50;;;;;;5066899;28;20224;-68
2022/02/14 05:47:11;;;;;;;2.83;1.17;;;16.50;54.20;;;;;;5034563;28;20687;-68
2022/02/14 05:49:41;;;;;;;1.50;1.10;;;16.50;54.10;;;;;;5045387;28;20209;-68
2022/02/14 05:52:09;;;;;;;1.73;1.20;;;16.50;54.00;;;;;;5046622;28;20190;-68
2022/02/14 05:54:39;;;;;;;2.27;1.30;;;16.50;54.10;;;;;;5064256;28;20194;-68
2022/02/14 05:57:10;;;;;;;1.50;1.30;;;16.50;54.00;;;;;;5048341;28;20210;-67
2022/02/14 05:59:41;;;;;;;2.00;1.10;;;16.50;54.00;;;;;;5051169;28;20237;-67
2022/02/14 06:02:16;;;;;;;2.10;1.17;;;16.50;54.20;;;;;;5048951;28;20689;-67
2022/02/14 06:04:44;;;;;;;2.23;1.47;;;16.50;54.50;;;;;;5066154;28;20242;-67
2022/02/14 06:07:12;;;;;;;1.70;1.07;;;16.50;54.60;;;;;;5060121;28;20221;-67
2022/02/14 06:09:42;;;;;;;2.50;1.43;;;16.50;54.80;;;;;;5068440;28;20611;-67
2022/02/14 06:12:17;;;;;;;1.63;1.40;;;16.50;55.00;;;;;;5066364;28;20260;-67
2022/02/14 06:14:50;;;;;;;1.67;1.17;;;16.50;55.20;;;;;;5064154;28;20275;-66
2022/02/14 06:17:21;;;;;;;3.30;1.10;;;16.50;55.30;;;;;;5063737;28;20650;-66
2022/02/14 06:19:52;;;;;;;1.57;0.97;;;16.50;55.30;;;;;;5067587;28;20233;-67
2022/02/14 06:22:25;;;;;;;3.00;1.33;;;16.50;55.40;;;;;;5066537;28;20627;-67
2022/02/14 06:24:55;;;;;;;1.80;0.90;;;16.50;55.50;;;;;;5049435;28;20209;-66
2022/02/14 06:27:27;;;;;;;1.10;1.00;;;16.50;55.50;;;;;;5042055;28;20236;-66
2022/02/14 06:29:59;;;;;;;2.33;1.23;;;16.50;55.50;;;;;;5051073;28;20202;-66
2022/02/14 06:32:32;;;;;;;1.30;1.10;;;16.50;55.80;;;;;;5067606;28;20201;-66
2022/02/14 06:35:04;;;;;;;1.83;1.20;;;16.50;55.70;;;;;;5066175;28;20210;-67
2022/02/14 06:37:36;;;;;;;2.37;1.30;;;16.50;55.70;;;;;;5063507;28;20346;-67
2022/02/14 06:40:17;;;;;;;1.33;1.07;;;16.50;55.50;;;;;;5061851;28;20378;-68
2022/02/14 06:43:03;;;;;;;1.37;1.23;;;16.50;55.60;;;;;;5052020;28;20232;-68
2022/02/14 06:45:32;;;;;;;1.40;0.80;;;16.50;55.60;;;;;;5072547;28;20215;-67
2022/02/14 06:48:00;;;;;;;2.47;0.90;;;16.50;55.70;;;;;;5064708;28;20253;-67
2022/02/14 06:50:44;;;;;;;1.30;1.00;;;16.60;55.70;;;;;;5067756;28;20209;-68
2022/02/14 06:53:20;;;;;;;2.57;1.10;;;16.50;55.60;;;;;;5065436;28;20290;-70
2022/02/14 06:56:00;;;;;;;2.77;1.30;;;16.50;56.60;;;;;;5066064;28;20212;-69
2022/02/14 06:58:29;;;;;;;4.03;1.50;;;16.50;56.40;;;;;;5063152;28;20204;-69
2022/02/14 07:01:00;;;;;;;3.53;1.43;;;16.50;56.60;;;;;;5066630;28;20198;-69
2022/02/14 07:03:30;;;;;;;1.93;0.90;;;16.50;56.40;;;;;;5060123;28;20205;-69
2022/02/14 07:06:04;;;;;;;1.17;1.00;;;16.50;56.20;;;;;;5016133;28;20654;-69
2022/02/14 07:08:48;;;;;;;3.07;1.20;;;16.60;56.30;;;;;;5046400;28;20202;-69
2022/02/14 07:11:27;;;;;;;1.73;1.10;;;16.50;56.10;;;;;;5053023;28;20296;-69
2022/02/14 07:13:59;;;;;;;1.90;1.10;;;16.50;56.10;;;;;;5063154;28;20217;-69
2022/02/14 07:16:30;;;;;;;2.23;1.30;;;16.50;56.00;;;;;;5066212;28;20657;-69
2022/02/14 07:19:02;;;;;;;1.47;1.00;;;16.50;56.00;;;;;;5064987;28;20226;-70
2022/02/14 07:21:33;;;;;;;2.20;1.20;;;16.60;56.30;;;;;;5046729;28;20205;-69
2022/02/14 07:24:07;;;;;;;1.57;1.10;;;16.50;56.10;;;;;;5068282;28;20202;-70
2022/02/14 07:26:43;;;;;;;2.03;1.10;;;16.50;56.00;;;;;;5063083;28;20241;-69
2022/02/14 07:29:15;;;;;;;1.33;0.70;;;16.50;56.10;;;;;;5068660;28;20189;-71
2022/02/14 07:31:46;;;;;;;2.17;0.73;;;16.50;56.20;;;;;;5070789;28;20190;-71
2022/02/14 07:34:18;;;;;;;1.53;0.90;;;16.50;56.20;;;;;;5069150;28;20204;-71
2022/02/14 07:36:49;;;;;;;3.37;1.17;;;16.50;56.00;;;;;;5062300;28;20528;-71
2022/02/14 07:39:20;;;;;;;1.77;1.13;;;16.50;56.00;;;;;;5064257;28;20217;-71
2022/02/14 07:41:52;;;;;;;2.57;1.20;;;16.50;56.20;;;;;;5059936;28;20198;-69
2022/02/14 07:44:27;;;;;;;88.73;21.23;;;16.50;56.30;;;;;;5066320;28;20198;-68
2022/02/14 07:46:56;;;;;;;94.90;19.97;;;16.50;57.00;;;;;;5068862;28;20247;-67
2022/02/14 07:49:27;;;;;;;72.33;15.30;;;16.60;58.90;;;;;;5066439;28;20190;-68
2022/02/14 07:51:58;;;;;;;56.93;15.37;;;16.80;58.80;;;;;;5055183;28;20231;-68
2022/02/14 07:54:37;;;;;;;42.50;11.57;;;16.90;58.50;;;;;;5069591;28;20194;-66
2022/02/14 07:57:11;;;;;;;46.30;11.07;;;17.20;58.00;;;;;;5065953;28;20662;-66
2022/02/14 07:59:41;;;;;;;37.43;9.67;;;17.40;57.70;;;;;;5046802;28;20206;-67
2022/02/14 08:02:12;;;;;;;27.37;9.17;;;17.50;57.20;;;;;;5061115;28;20206;-67
2022/02/14 08:04:46;;;;;;;21.37;6.97;;;17.70;56.70;;;;;;5072838;28;20196;-66
2022/02/14 08:07:17;;;;;;;20.83;6.87;;;17.90;56.30;;;;;;5085660;28;20217;-66
2022/02/14 08:10:13;;;;;;;16.57;6.17;;;18.20;55.80;;;;;;5082342;28;20276;-68
2022/02/14 08:12:43;;;;;;;14.10;5.57;;;18.40;55.30;;;;;;5060514;28;20552;-68
2022/02/14 08:15:13;;;;;;;14.97;5.20;;;18.50;55.10;;;;;;5066767;28;20208;-69
2022/02/14 08:17:47;;;;;;;13.93;4.93;;;18.70;54.70;;;;;;5074835;28;20214;-68
2022/02/14 08:20:15;;;;;;;12.23;4.33;;;18.90;54.40;;;;;;5059670;28;21949;-67
2022/02/14 08:22:46;;;;;;;9.03;4.37;;;19.10;54.10;;;;;;5069809;28;20190;-69
2022/02/14 08:25:19;;;;;;;11.53;4.00;;;19.30;53.60;;;;;;5065133;28;20212;-68
2022/02/14 08:27:49;;;;;;;8.67;3.80;;;19.40;53.30;;;;;;5050377;28;20689;-67
2022/02/14 08:30:18;;;;;;;10.87;4.20;;;19.60;53.00;;;;;;5051558;28;20793;-69
2022/02/14 08:32:49;;;;;;;7.57;3.40;;;19.70;52.70;;;;;;5050843;28;20209;-69
2022/02/14 08:35:26;;;;;;;8.00;3.10;;;19.90;52.50;;;;;;5067243;28;20196;-69
2022/02/14 08:37:57;;;;;;;7.10;2.63;;;20.00;52.20;;;;;;5064728;28;20263;-68
2022/02/14 08:40:28;;;;;;;6.13;2.83;;;20.10;51.90;;;;;;5049194;28;20205;-70
2022/02/14 08:43:00;;;;;;;7.17;2.53;;;20.30;51.70;;;;;;5070245;28;20622;-70
2022/02/14 08:45:49;;;;;;;4.43;1.97;;;20.30;51.20;;;;;;5047575;28;20209;-70
2022/02/14 08:48:18;;;;;;;4.97;2.13;;;20.40;50.90;;;;;;5064040;28;20265;-70
2022/02/14 08:50:49;;;;;;;8.00;2.23;;;20.60;50.60;;;;;;5061462;28;20218;-70
2022/02/14 08:53:22;;;;;;;3.67;1.70;;;20.60;50.30;;;;;;5044169;28;20589;-70
2022/02/14 08:55:52;;;;;;;4.17;1.60;;;20.70;50.10;;;;;;5057889;28;20182;-70
2022/02/14 08:58:25;;;;;;;3.27;1.60;;;20.80;50.00;;;;;;5067554;28;20225;-68
2022/02/14 09:00:54;;;;;;;2.77;1.60;;;20.80;50.20;;;;;;5034719;28;20281;-70
2022/02/14 09:03:25;;;;;;;4.07;1.70;;;21.00;50.40;;;;;;5051087;28;20205;-69
2022/02/14 09:05:57;;;;;;;3.10;1.67;;;21.10;50.50;;;;;;5051951;28;20665;-69
2022/02/14 09:08:29;;;;;;;3.77;1.60;;;21.20;50.30;;;;;;5034186;28;20240;-70
2022/02/14 09:11:01;;;;;;;4.07;1.77;;;21.30;50.10;;;;;;5065871;28;20194;-69
2022/02/14 09:13:36;;;;;;;3.13;1.50;;;21.50;50.00;;;;;;5069543;28;20216;-68
2022/02/14 09:16:05;;;;;;;4.33;1.53;;;21.60;49.80;;;;;;5062982;28;20198;-68
2022/02/14 09:18:37;;;;;;;3.63;1.60;;;21.70;49.60;;;;;;5049257;28;20690;-68
2022/02/14 09:21:07;;;;;;;1.80;1.20;;;21.90;50.10;;;;;;5031435;28;20273;-69
2022/02/14 09:23:36;;;;;;;2.03;1.10;;;22.00;49.20;;;;;;5014802;28;20649;-69
2022/02/14 09:26:06;;;;;;;3.90;1.40;;;22.10;49.10;;;;;;5028049;28;20245;-68
2022/02/14 09:28:35;;;;;;;2.33;1.30;;;22.20;48.80;;;;;;5028342;28;20656;-68
2022/02/14 09:31:07;;;;;;;2.47;1.23;;;22.40;48.80;;;;;;5046918;28;20209;-70
2022/02/14 09:33:40;;;;;;;2.93;1.07;;;22.40;48.50;;;;;;5045780;28;20211;-71
2022/02/14 09:36:10;;;;;;;1.97;1.20;;;22.50;48.40;;;;;;5042827;28;20689;-71
2022/02/14 09:38:38;;;;;;;4.47;1.10;;;22.60;48.20;;;;;;5032025;28;20229;-73
2022/02/14 09:41:06;;;;;;;1.27;0.97;;;22.70;48.20;;;;;;5051917;28;20191;-73
2022/02/14 09:43:55;;;;;;;1.70;0.90;;;22.80;48.00;;;;;;5044631;28;20194;-68
2022/02/14 09:46:28;;;;;;;2.10;1.20;;;22.90;47.90;;;;;;5043902;28;20885;-71
2022/02/14 09:49:12;;;;;;;2.47;1.27;;;23.00;47.80;;;;;;5036450;28;20566;-73
2022/02/14 09:51:46;;;;;;;2.77;0.80;;;23.10;47.70;;;;;;5041640;28;20199;-70
2022/02/14 09:54:22;;;;;;;2.20;1.00;;;23.20;47.60;;;;;;5037308;28;20271;-71
2022/02/14 09:56:54;;;;;;;1.10;0.80;;;23.30;47.50;;;;;;5023606;28;20203;-72
2022/02/14 09:59:28;;;;;;;2.53;0.70;;;23.30;47.30;;;;;;5024842;28;20230;-72
2022/02/14 10:02:19;;;;;;;2.00;0.90;;;23.40;47.20;;;;;;5045314;28;20214;-71
2022/02/14 10:05:31;;;;;;;1.00;0.60;;;23.50;47.20;;;;;;5041310;28;20573;-69
2022/02/14 10:08:02;;;;;;;44.83;42.00;;;;;;;;;;5012117;28;20207;-67
2022/02/14 10:10:32;;;;;;;43.60;41.30;;;;;;;;;;5045154;28;20655;-67
2022/02/14 10:13:02;;;;;;;44.30;42.00;;;;;;;;;;5023976;28;20190;-67
2022/02/14 10:15:34;;;;;;;44.50;42.17;;;;;;;;;;5043269;28;20691;-68
2022/02/14 10:18:03;;;;;;;43.70;41.50;;;;;;;;;;5043538;28;20194;-68
2022/02/14 10:20:36;;;;;;;43.37;41.17;;;;;;;;;;5049263;28;20745;-69
2022/02/14 10:23:10;;;;;;;44.10;41.90;;;;;;;;;;5065257;28;20198;-69
2022/02/14 10:25:44;;;;;;;42.80;40.63;;;;;;;;;;5049651;28;20212;-69
2022/02/14 10:28:30;;;;;;;45.87;43.17;;;;;;;;;;5052412;28;20717;-70
2022/02/14 10:31:08;;;;;;;45.70;43.40;;;;;;;;;;5066044;28;20224;-68
2022/02/14 10:33:50;;;;;;;44.17;41.87;;;;;;;;;;5056883;28;20626;-69
2022/02/14 10:36:31;;;;;;;43.67;41.37;;;;;;;;;;5067510;28;20201;-68
2022/02/14 10:39:20;;;;;;;44.13;41.73;;;;;;;;;;5067906;28;20197;-68
2022/02/14 10:42:06;;;;;;;44.33;41.87;;;;;;;;;;5058844;28;20244;-68
2022/02/14 10:45:09;;;;;;;42.70;40.40;;;;;;;;;;5061006;28;20209;-66
2022/02/14 10:47:50;;;;;;;45.13;42.63;;;;;;;;;;5065415;28;20206;-67
2022/02/14 10:50:26;;;;;;;42.80;40.60;;;;;;;;;;5057406;28;20221;-66
2022/02/14 10:53:06;;;;;;;41.53;39.43;;;;;;;;;;5062310;28;20707;-67
2022/02/14 10:55:43;;;;;;;43.07;40.67;;;;;;;;;;5049023;28;20193;-68
2022/02/14 10:58:16;;;;;;;42.80;40.70;;;;;;;;;;5063214;28;20241;-67
2022/02/14 11:00:46;;;;;;;44.43;42.13;;;;;;;;;;5053558;28;20204;-71
2022/02/14 11:03:18;;;;;;;44.07;41.87;;;;;;;;;;5068993;28;20275;-69
2022/02/14 11:05:48;;;;;;;43.73;41.50;;;;;;;;;;5071638;28;20206;-69
2022/02/14 11:08:23;;;;;;;42.80;40.60;;;;;;;;;;5061481;28;20241;-69
2022/02/14 11:10:54;;;;;;;43.17;40.97;;;;;;;;;;5066968;28;20243;-69
2022/02/14 11:13:26;;;;;;;42.67;40.47;;;;;;;;;;5066066;28;20198;-69
2022/02/14 11:16:00;;;;;;;44.83;42.53;;;;;;;;;;5065112;28;20225;-71
2022/02/14 11:18:41;;;;;;;44.30;42.00;;;;;;;;;;5052863;28;20194;-67
2022/02/14 11:21:11;;;;;;;2.67;0.73;;;;;;;;;;5066558;28;20754;-68
2022/02/14 11:23:49;;;;;;;1.50;1.00;;;;;;;;;;5064593;28;20663;-69
2022/02/14 11:26:36;;;;;;;2.87;0.80;;;;;;;;;;5067538;28;20562;-69
2022/02/14 11:29:25;;;;;;;1.83;0.67;;;;;;;;;;5066969;28;20241;-69
2022/02/14 11:32:13;;;;;;;1.60;0.60;;;;;;;;;;5047669;28;20205;-68
2022/02/14 11:34:54;;;;;;;0.73;0.53;;;;;;;;;;5067523;28;20232;-68
2022/02/14 11:37:45;;;;;;;1.23;0.47;;;;;;;;;;5065585;28;20205;-68
2022/02/14 11:40:53;;;;;;;0.73;0.53;;;;;;;;;;5067886;28;20190;-68
2022/02/14 11:43:37;;;;;;;1.00;0.50;;;;;;;;;;5058763;28;20214;-68
2022/02/14 11:46:25;;;;;;;0.60;0.40;;;;;;;;;;5061711;28;20235;-68
2022/02/14 11:48:57;;;;;;;0.67;0.43;;;;;;;;;;5062938;28;20781;-68
2022/02/14 11:51:39;;;;;;;1.03;0.60;;;;;;;;;;5056906;28;20261;-68
2022/02/14 11:54:31;;;;;;;0.50;0.50;;;;;;;;;;5065262;28;20197;-67
2022/02/14 11:57:11;;;;;;;1.38;0.90;;;;;;;;;;5062406;28;20428;-65
2022/02/14 11:59:42;;;;;;;0.83;0.47;;;;;;;;;;5067375;28;20746;-65
2022/02/14 12:02:14;;;;;;;2.90;0.60;;;;;;;;;;5055381;28;20206;-65
2022/02/14 12:04:48;;;;;;;0.67;0.67;;;;;;;;;;5062719;28;20206;-67
2022/02/14 12:07:39;;;;;;;1.80;0.60;;;;;;;;;;5054066;28;20197;-65
2022/02/14 12:10:18;;;;;;;1.67;0.80;;;;;;;;;;5060027;28;20683;-65
2022/02/14 12:12:58;;;;;;;0.73;0.60;;;;;;;;;;5061430;28;20646;-69
2022/02/14 12:21:24;;;;;;;3.10;0.93;;;;;;;;;;5053557;28;20299;-66
2022/02/14 12:24:23;;;;;;;2.30;0.90;;;;;;;;;;5056764;28;20679;-65
2022/02/14 12:27:00;;;;;;;1.13;0.50;;;;;;;;;;5055797;28;20655;-65
2022/02/14 12:29:42;;;;;;;3.17;0.63;;;;;;;;;;5063436;28;20241;-65
2022/02/14 12:32:16;;;;;;;2.40;0.77;;;;;;;;;;5060795;28;20225;-65
2022/02/14 12:34:47;;;;;;;3.20;0.70;;;;;;;;;;5049434;28;20627;-65
2022/02/14 12:37:21;;;;;;;1.43;0.80;;;;;;;;;;5053276;28;20200;-66
2022/02/14 12:39:53;;;;;;;2.20;1.00;;;;;;;;;;5064065;28;20212;-65
2022/02/14 12:42:28;;;;;;;1.17;0.80;;;;;;;;;;5066995;28;20194;-65
2022/02/14 12:45:02;;;;;;;1.13;0.60;;;;;;;;;;5057647;28;20227;-65
2022/02/14 12:47:38;;;;;;;1.27;0.80;;;;;;;;;;5064601;28;20259;-65
2022/02/14 12:50:17;;;;;;;1.77;0.90;;;;;;;;;;5045188;28;20206;-65
2022/02/14 12:52:49;;;;;;;1.20;0.80;;;;;;;;;;5067672;28;20229;-65
2022/02/14 12:55:25;;;;;;;2.30;0.70;;;;;;;;;;5059185;28;20178;-68
2022/02/14 12:57:57;;;;;;;1.20;0.80;;;;;;;;;;5060538;28;20212;-65
2022/02/14 13:00:43;;;;;;;1.00;0.80;;;;;;;;;;5065226;28;20209;-65
2022/02/14 13:03:17;;;;;;;2.60;0.70;;;;;;;;;;5070827;28;20668;-64
2022/02/14 13:05:52;;;;;;;1.87;0.93;;;;;;;;;;5056684;28;20272;-65
2022/02/14 13:08:22;;;;;;;1.77;0.83;;;;;;;;;;5063994;28;20694;-66
2022/02/14 13:10:54;;;;;;;2.60;0.90;;;;;;;;;;5066776;28;20632;-65
2022/02/14 13:13:34;;;;;;;0.97;0.80;;;;;;;;;;5048662;28;20597;-65
2022/02/14 13:16:10;;;;;;;1.70;0.80;;;;;;;;;;5069939;28;20213;-66
2022/02/14 13:18:49;;;;;;;1.67;0.90;;;;;;;;;;5047612;28;20201;-67
2022/02/14 13:21:21;;;;;;;1.20;0.73;;;;;;;;;;5047864;28;20214;-65
2022/02/14 13:23:56;;;;;;;2.93;0.97;;;;;;;;;;5056584;28;20201;-63
2022/02/14 13:26:37;;;;;;;1.13;0.80;;;;;;;;;;5051366;28;20198;-65
2022/02/14 13:29:08;;;;;;;0.90;0.80;;;;;;;;;;5067639;28;20217;-65
2022/02/14 13:31:39;;;;;;;2.20;0.70;;;;;;;;;;5069973;28;20205;-66
2022/02/14 13:34:10;;;;;;;2.53;0.83;;;;;;;;;;5062426;28;20229;-65
2022/02/14 13:36:54;;;;;;;2.60;0.87;;;;;;;;;;5047460;28;20701;-65
2022/02/14 13:39:31;;;;;;;0.90;0.80;;;;;;;;;;5066588;28;20218;-64
2022/02/14 13:42:03;;;;;;;1.93;0.90;;;;;;;;;;5051308;28;20200;-64
2022/02/14 13:44:34;;;;;;;1.47;0.80;;;;;;;;;;5046521;28;20217;-64
2022/02/14 13:47:18;;;;;;;1.30;0.90;;;;;;;;;;5063419;28;20212;-64
2022/02/14 13:49:49;;;;;;;1.13;0.90;;;;;;;;;;5068185;28;20221;-65
2022/02/14 13:52:31;;;;;;;2.70;1.00;;;;;;;;;;5066401;28;20197;-65
2022/02/14 13:55:16;;;;;;;2.83;1.10;;;;;;;;;;5049645;28;20647;-65